sensor_id;sensor_type;location;lat;lon;timestamp;P1;durP1;ratioP1;P2;durP2;ratioP2
17253;SDS011;32542;52.832;13.816;2023-07-29T00:00:59;2.67;;;0.90;;
17253;SDS011;32542;52.832;13.816;2023-07-29T00:04:02;1.58;;;0.88;;
17253;SDS011;32542;52.832;13.816;2023-07-29T00:07:06;1.25;;;0.90;;
17253;SDS011;32542;52.832;13.816;2023-07-29T00:10:10;1.50;;;0.85;;
17253;SDS011;32542;52.832;13.816;2023-07-29T00:13:13;1.10;;;1.00;;
17253;SDS011;32542;52.832;13.816;2023-07-29T00:16:16;2.00;;;0.93;;
17253;SDS011;32542;52.832;13.816;2023-07-29T00:19:19;1.70;;;1.00;;
17253;SDS011;32542;52.832;13.816;2023-07-29T00:22:24;0.80;;;0.80;;
17253;SDS011;32542;52.832;13.816;2023-07-29T00:25:29;2.08;;;1.17;;
17253;SDS011;32542;52.832;13.816;2023-07-29T00:28:31;1.25;;;1.00;;
17253;SDS011;32542;52.832;13.816;2023-07-29T00:31:35;1.88;;;0.82;;
17253;SDS011;32542;52.832;13.816;2023-07-29T00:34:38;0.98;;;0.85;;
17253;SDS011;32542;52.832;13.816;2023-07-29T00:37:41;1.10;;;1.00;;
17253;SDS011;32542;52.832;13.816;2023-07-29T00:40:47;0.82;;;0.82;;
17253;SDS011;32542;52.832;13.816;2023-07-29T00:43:50;1.52;;;1.00;;
17253;SDS011;32542;52.832;13.816;2023-07-29T00:46:53;1.80;;;0.90;;
17253;SDS011;32542;52.832;13.816;2023-07-29T00:49:56;2.20;;;1.20;;
17253;SDS011;32542;52.832;13.816;2023-07-29T00:52:59;1.90;;;0.90;;
17253;SDS011;32542;52.832;13.816;2023-07-29T00:56:04;0.93;;;0.77;;
17253;SDS011;32542;52.832;13.816;2023-07-29T00:59:07;0.70;;;0.70;;
17253;SDS011;32542;52.832;13.816;2023-07-29T01:02:10;1.20;;;0.90;;
17253;SDS011;32542;52.832;13.816;2023-07-29T01:05:14;1.02;;;0.90;;
17253;SDS011;32542;52.832;13.816;2023-07-29T01:08:21;2.17;;;1.00;;
17253;SDS011;32542;52.832;13.816;2023-07-29T01:11:38;1.33;;;0.80;;
17253;SDS011;32542;52.832;13.816;2023-07-29T01:14:51;1.58;;;1.00;;
17253;SDS011;32542;52.832;13.816;2023-07-29T01:18:02;1.02;;;1.00;;
17253;SDS011;32542;52.832;13.816;2023-07-29T01:21:08;1.70;;;1.05;;
17253;SDS011;32542;52.832;13.816;2023-07-29T01:24:13;1.67;;;1.00;;
17253;SDS011;32542;52.832;13.816;2023-07-29T01:27:16;1.70;;;1.10;;
17253;SDS011;32542;52.832;13.816;2023-07-29T01:30:19;1.10;;;1.00;;
17253;SDS011;32542;52.832;13.816;2023-07-29T01:33:24;1.20;;;1.10;;
17253;SDS011;32542;52.832;13.816;2023-07-29T01:36:29;1.20;;;1.10;;
17253;SDS011;32542;52.832;13.816;2023-07-29T01:39:37;1.45;;;1.10;;
17253;SDS011;32542;52.832;13.816;2023-07-29T01:42:41;4.50;;;1.20;;
17253;SDS011;32542;52.832;13.816;2023-07-29T01:45:45;1.55;;;1.23;;
17253;SDS011;32542;52.832;13.816;2023-07-29T01:48:48;1.27;;;1.10;;
17253;SDS011;32542;52.832;13.816;2023-07-29T01:51:51;2.13;;;1.20;;
17253;SDS011;32542;52.832;13.816;2023-07-29T01:54:55;1.20;;;1.10;;
17253;SDS011;32542;52.832;13.816;2023-07-29T01:57:58;1.40;;;1.30;;
17253;SDS011;32542;52.832;13.816;2023-07-29T02:01:02;1.20;;;1.10;;
17253;SDS011;32542;52.832;13.816;2023-07-29T02:04:05;3.05;;;1.20;;
17253;SDS011;32542;52.832;13.816;2023-07-29T02:07:08;1.80;;;1.23;;
17253;SDS011;32542;52.832;13.816;2023-07-29T02:10:13;2.47;;;1.20;;
17253;SDS011;32542;52.832;13.816;2023-07-29T02:13:16;1.95;;;1.33;;
17253;SDS011;32542;52.832;13.816;2023-07-29T02:16:19;2.97;;;2.03;;
17253;SDS011;32542;52.832;13.816;2023-07-29T02:19:22;1.20;;;1.10;;
17253;SDS011;32542;52.832;13.816;2023-07-29T02:22:25;2.50;;;1.40;;
17253;SDS011;32542;52.832;13.816;2023-07-29T02:25:29;1.50;;;1.38;;
17253;SDS011;32542;52.832;13.816;2023-07-29T02:28:32;2.78;;;1.40;;
17253;SDS011;32542;52.832;13.816;2023-07-29T02:31:35;1.58;;;1.40;;
17253;SDS011;32542;52.832;13.816;2023-07-29T02:34:39;1.80;;;1.20;;
17253;SDS011;32542;52.832;13.816;2023-07-29T02:37:42;1.30;;;1.20;;
17253;SDS011;32542;52.832;13.816;2023-07-29T02:40:46;1.40;;;1.30;;
17253;SDS011;32542;52.832;13.816;2023-07-29T02:43:49;1.50;;;1.40;;
17253;SDS011;32542;52.832;13.816;2023-07-29T02:46:53;1.55;;;1.20;;
17253;SDS011;32542;52.832;13.816;2023-07-29T02:49:57;1.55;;;1.45;;
17253;SDS011;32542;52.832;13.816;2023-07-29T02:53:00;1.83;;;1.30;;
17253;SDS011;32542;52.832;13.816;2023-07-29T02:56:05;2.60;;;1.40;;
17253;SDS011;32542;52.832;13.816;2023-07-29T02:59:10;1.95;;;1.40;;
17253;SDS011;32542;52.832;13.816;2023-07-29T03:02:13;3.38;;;1.52;;
17253;SDS011;32542;52.832;13.816;2023-07-29T03:05:17;2.53;;;1.52;;
17253;SDS011;32542;52.832;13.816;2023-07-29T03:08:20;2.03;;;1.30;;
17253;SDS011;32542;52.832;13.816;2023-07-29T03:11:24;3.83;;;1.50;;
17253;SDS011;32542;52.832;13.816;2023-07-29T03:14:27;1.60;;;1.50;;
17253;SDS011;32542;52.832;13.816;2023-07-29T03:17:30;2.22;;;1.60;;
17253;SDS011;32542;52.832;13.816;2023-07-29T03:20:33;2.38;;;1.70;;
17253;SDS011;32542;52.832;13.816;2023-07-29T03:23:37;2.55;;;1.85;;
17253;SDS011;32542;52.832;13.816;2023-07-29T03:26:42;1.98;;;1.40;;
17253;SDS011;32542;52.832;13.816;2023-07-29T03:29:47;1.50;;;1.40;;
17253;SDS011;32542;52.832;13.816;2023-07-29T03:32:50;1.70;;;1.60;;
17253;SDS011;32542;52.832;13.816;2023-07-29T03:35:53;1.75;;;1.50;;
17253;SDS011;32542;52.832;13.816;2023-07-29T03:38:56;1.85;;;1.70;;
17253;SDS011;32542;52.832;13.816;2023-07-29T03:42:01;2.28;;;1.60;;
17253;SDS011;32542;52.832;13.816;2023-07-29T03:45:04;1.92;;;1.70;;
17253;SDS011;32542;52.832;13.816;2023-07-29T03:48:08;2.22;;;1.65;;
17253;SDS011;32542;52.832;13.816;2023-07-29T03:51:11;1.73;;;1.63;;
17253;SDS011;32542;52.832;13.816;2023-07-29T03:54:14;1.60;;;1.50;;
17253;SDS011;32542;52.832;13.816;2023-07-29T03:57:18;2.47;;;1.48;;
17253;SDS011;32542;52.832;13.816;2023-07-29T04:00:21;1.88;;;1.65;;
17253;SDS011;32542;52.832;13.816;2023-07-29T04:03:24;1.88;;;1.52;;
17253;SDS011;32542;52.832;13.816;2023-07-29T04:06:29;1.50;;;1.40;;
17253;SDS011;32542;52.832;13.816;2023-07-29T04:09:32;1.60;;;1.50;;
17253;SDS011;32542;52.832;13.816;2023-07-29T04:12:36;1.70;;;1.60;;
17253;SDS011;32542;52.832;13.816;2023-07-29T04:15:39;1.90;;;1.70;;
17253;SDS011;32542;52.832;13.816;2023-07-29T04:18:42;1.95;;;1.75;;
17253;SDS011;32542;52.832;13.816;2023-07-29T04:21:46;2.08;;;1.88;;
17253;SDS011;32542;52.832;13.816;2023-07-29T04:24:49;1.67;;;1.58;;
17253;SDS011;32542;52.832;13.816;2023-07-29T04:27:53;2.58;;;1.75;;
17253;SDS011;32542;52.832;13.816;2023-07-29T04:30:56;2.45;;;1.73;;
17253;SDS011;32542;52.832;13.816;2023-07-29T04:33:59;1.83;;;1.63;;
17253;SDS011;32542;52.832;13.816;2023-07-29T04:37:03;2.80;;;1.88;;
17253;SDS011;32542;52.832;13.816;2023-07-29T04:51:22;1.85;;;1.70;;
17253;SDS011;32542;52.832;13.816;2023-07-29T04:54:26;2.13;;;1.92;;
17253;SDS011;32542;52.832;13.816;2023-07-29T04:57:29;2.22;;;1.80;;
17253;SDS011;32542;52.832;13.816;2023-07-29T05:00:31;4.75;;;2.20;;
17253;SDS011;32542;52.832;13.816;2023-07-29T05:03:35;3.20;;;1.70;;
17253;SDS011;32542;52.832;13.816;2023-07-29T05:06:40;1.98;;;1.80;;
17253;SDS011;32542;52.832;13.816;2023-07-29T05:09:43;2.33;;;1.92;;
17253;SDS011;32542;52.832;13.816;2023-07-29T05:12:46;2.20;;;2.00;;
17253;SDS011;32542;52.832;13.816;2023-07-29T05:15:49;1.60;;;1.50;;
17253;SDS011;32542;52.832;13.816;2023-07-29T05:18:53;2.10;;;1.90;;
17253;SDS011;32542;52.832;13.816;2023-07-29T05:21:57;2.10;;;1.80;;
17253;SDS011;32542;52.832;13.816;2023-07-29T05:25:01;2.28;;;2.00;;
17253;SDS011;32542;52.832;13.816;2023-07-29T05:28:04;1.80;;;1.70;;
17253;SDS011;32542;52.832;13.816;2023-07-29T05:31:08;1.90;;;1.70;;
17253;SDS011;32542;52.832;13.816;2023-07-29T05:34:11;2.47;;;2.28;;
17253;SDS011;32542;52.832;13.816;2023-07-29T05:37:15;2.92;;;2.20;;
17253;SDS011;32542;52.832;13.816;2023-07-29T05:40:18;2.05;;;1.85;;
17253;SDS011;32542;52.832;13.816;2023-07-29T05:43:23;2.80;;;2.05;;
17253;SDS011;32542;52.832;13.816;2023-07-29T05:46:26;2.20;;;2.00;;
17253;SDS011;32542;52.832;13.816;2023-07-29T05:49:29;2.10;;;1.90;;
17253;SDS011;32542;52.832;13.816;2023-07-29T05:52:35;2.70;;;2.50;;
17253;SDS011;32542;52.832;13.816;2023-07-29T05:55:39;3.30;;;2.05;;
17253;SDS011;32542;52.832;13.816;2023-07-29T05:58:42;2.33;;;1.80;;
17253;SDS011;32542;52.832;13.816;2023-07-29T06:01:45;2.15;;;1.95;;
17253;SDS011;32542;52.832;13.816;2023-07-29T06:04:48;2.47;;;2.10;;
17253;SDS011;32542;52.832;13.816;2023-07-29T06:07:52;2.03;;;1.83;;
17253;SDS011;32542;52.832;13.816;2023-07-29T06:10:55;2.20;;;2.00;;
17253;SDS011;32542;52.832;13.816;2023-07-29T06:13:58;2.40;;;1.80;;
17253;SDS011;32542;52.832;13.816;2023-07-29T06:17:01;2.17;;;1.98;;
17253;SDS011;32542;52.832;13.816;2023-07-29T06:20:04;3.00;;;1.70;;
17253;SDS011;32542;52.832;13.816;2023-07-29T06:23:09;2.40;;;2.20;;
17253;SDS011;32542;52.832;13.816;2023-07-29T06:26:12;2.40;;;2.20;;
17253;SDS011;32542;52.832;13.816;2023-07-29T06:29:15;2.20;;;2.00;;
17253;SDS011;32542;52.832;13.816;2023-07-29T06:32:18;2.10;;;2.00;;
17253;SDS011;32542;52.832;13.816;2023-07-29T06:35:21;2.08;;;1.88;;
17253;SDS011;32542;52.832;13.816;2023-07-29T06:38:26;2.38;;;2.17;;
17253;SDS011;32542;52.832;13.816;2023-07-29T06:41:29;2.67;;;1.65;;
17253;SDS011;32542;52.832;13.816;2023-07-29T06:44:36;3.58;;;1.98;;
17253;SDS011;32542;52.832;13.816;2023-07-29T06:47:39;2.10;;;1.90;;
17253;SDS011;32542;52.832;13.816;2023-07-29T06:50:42;2.28;;;1.95;;
17253;SDS011;32542;52.832;13.816;2023-07-29T06:53:46;2.10;;;1.90;;
17253;SDS011;32542;52.832;13.816;2023-07-29T06:56:49;2.40;;;2.20;;
17253;SDS011;32542;52.832;13.816;2023-07-29T06:59:52;2.17;;;1.98;;
17253;SDS011;32542;52.832;13.816;2023-07-29T07:02:55;2.90;;;2.05;;
17253;SDS011;32542;52.832;13.816;2023-07-29T07:05:58;2.08;;;1.92;;
17253;SDS011;32542;52.832;13.816;2023-07-29T07:09:02;1.88;;;1.77;;
17253;SDS011;32542;52.832;13.816;2023-07-29T07:12:06;3.03;;;2.03;;
17253;SDS011;32542;52.832;13.816;2023-07-29T07:15:09;2.42;;;1.70;;
17253;SDS011;32542;52.832;13.816;2023-07-29T07:18:12;2.38;;;2.00;;
17253;SDS011;32542;52.832;13.816;2023-07-29T07:21:15;2.13;;;1.92;;
17253;SDS011;32542;52.832;13.816;2023-07-29T07:24:19;1.98;;;1.77;;
17253;SDS011;32542;52.832;13.816;2023-07-29T07:27:22;2.30;;;2.00;;
17253;SDS011;32542;52.832;13.816;2023-07-29T07:30:26;2.90;;;2.17;;
17253;SDS011;32542;52.832;13.816;2023-07-29T07:33:28;2.28;;;2.08;;
17253;SDS011;32542;52.832;13.816;2023-07-29T07:36:31;1.95;;;1.85;;
17253;SDS011;32542;52.832;13.816;2023-07-29T07:39:36;2.00;;;1.80;;
17253;SDS011;32542;52.832;13.816;2023-07-29T07:42:39;2.40;;;2.20;;
17253;SDS011;32542;52.832;13.816;2023-07-29T07:45:42;2.50;;;2.30;;
17253;SDS011;32542;52.832;13.816;2023-07-29T07:48:45;2.65;;;2.17;;
17253;SDS011;32542;52.832;13.816;2023-07-29T07:51:48;2.63;;;2.42;;
17253;SDS011;32542;52.832;13.816;2023-07-29T07:54:53;2.42;;;2.22;;
17253;SDS011;32542;52.832;13.816;2023-07-29T07:57:56;2.92;;;2.30;;
17253;SDS011;32542;52.832;13.816;2023-07-29T08:01:02;1.95;;;1.77;;
17253;SDS011;32542;52.832;13.816;2023-07-29T08:04:06;2.95;;;2.15;;
17253;SDS011;32542;52.832;13.816;2023-07-29T08:07:09;2.92;;;2.30;;
17253;SDS011;32542;52.832;13.816;2023-07-29T08:10:13;2.20;;;2.00;;
17253;SDS011;32542;52.832;13.816;2023-07-29T08:13:16;2.20;;;1.95;;
17253;SDS011;32542;52.832;13.816;2023-07-29T08:16:19;4.30;;;2.92;;
17253;SDS011;32542;52.832;13.816;2023-07-29T08:19:22;2.03;;;1.90;;
17253;SDS011;32542;52.832;13.816;2023-07-29T08:22:25;1.88;;;1.77;;
17253;SDS011;32542;52.832;13.816;2023-07-29T08:25:29;3.28;;;1.80;;
17253;SDS011;32542;52.832;13.816;2023-07-29T08:28:33;2.20;;;2.00;;
17253;SDS011;32542;52.832;13.816;2023-07-29T08:31:37;2.67;;;2.17;;
17253;SDS011;32542;52.832;13.816;2023-07-29T08:34:40;2.20;;;2.00;;
17253;SDS011;32542;52.832;13.816;2023-07-29T08:37:43;2.45;;;2.08;;
17253;SDS011;32542;52.832;13.816;2023-07-29T08:40:49;2.78;;;2.47;;
17253;SDS011;32542;52.832;13.816;2023-07-29T08:43:56;2.20;;;2.00;;
17253;SDS011;32542;52.832;13.816;2023-07-29T08:47:04;4.07;;;2.22;;
17253;SDS011;32542;52.832;13.816;2023-07-29T08:50:07;3.92;;;2.22;;
17253;SDS011;32542;52.832;13.816;2023-07-29T08:53:15;2.65;;;2.13;;
17253;SDS011;32542;52.832;13.816;2023-07-29T08:56:20;4.57;;;2.70;;
17253;SDS011;32542;52.832;13.816;2023-07-29T08:59:23;3.00;;;2.30;;
17253;SDS011;32542;52.832;13.816;2023-07-29T09:02:28;4.38;;;2.20;;
17253;SDS011;32542;52.832;13.816;2023-07-29T09:05:31;2.78;;;2.47;;
17253;SDS011;32542;52.832;13.816;2023-07-29T09:08:35;2.92;;;2.45;;
17253;SDS011;32542;52.832;13.816;2023-07-29T09:11:40;2.97;;;2.40;;
17253;SDS011;32542;52.832;13.816;2023-07-29T09:14:43;2.80;;;2.60;;
17253;SDS011;32542;52.832;13.816;2023-07-29T09:17:46;2.80;;;2.60;;
17253;SDS011;32542;52.832;13.816;2023-07-29T09:20:50;3.13;;;2.60;;
17253;SDS011;32542;52.832;13.816;2023-07-29T09:23:52;3.17;;;2.22;;
17253;SDS011;32542;52.832;13.816;2023-07-29T09:26:57;2.80;;;2.60;;
17253;SDS011;32542;52.832;13.816;2023-07-29T09:30:00;2.50;;;2.30;;
17253;SDS011;32542;52.832;13.816;2023-07-29T09:33:04;2.92;;;2.65;;
17253;SDS011;32542;52.832;13.816;2023-07-29T09:36:08;3.80;;;2.67;;
17253;SDS011;32542;52.832;13.816;2023-07-29T09:39:12;3.13;;;2.83;;
17253;SDS011;32542;52.832;13.816;2023-07-29T09:42:20;4.97;;;2.55;;
17253;SDS011;32542;52.832;13.816;2023-07-29T09:45:25;3.72;;;2.38;;
17253;SDS011;32542;52.832;13.816;2023-07-29T09:48:32;4.10;;;2.65;;
17253;SDS011;32542;52.832;13.816;2023-07-29T09:51:36;2.95;;;2.63;;
17253;SDS011;32542;52.832;13.816;2023-07-29T09:54:41;5.15;;;2.97;;
17253;SDS011;32542;52.832;13.816;2023-07-29T09:57:46;2.72;;;2.33;;
17253;SDS011;32542;52.832;13.816;2023-07-29T10:00:49;2.88;;;2.67;;
17253;SDS011;32542;52.832;13.816;2023-07-29T10:03:52;3.38;;;3.03;;
17253;SDS011;32542;52.832;13.816;2023-07-29T10:07:01;2.55;;;2.35;;
17253;SDS011;32542;52.832;13.816;2023-07-29T10:10:05;5.30;;;2.40;;
17253;SDS011;32542;52.832;13.816;2023-07-29T10:13:11;3.00;;;2.58;;
17253;SDS011;32542;52.832;13.816;2023-07-29T10:16:15;2.60;;;2.40;;
17253;SDS011;32542;52.832;13.816;2023-07-29T10:19:18;3.03;;;2.42;;
17253;SDS011;32542;52.832;13.816;2023-07-29T10:22:22;3.05;;;2.53;;
17253;SDS011;32542;52.832;13.816;2023-07-29T10:25:30;2.60;;;2.40;;
17253;SDS011;32542;52.832;13.816;2023-07-29T10:28:44;2.80;;;2.42;;
17253;SDS011;32542;52.832;13.816;2023-07-29T10:31:50;9.70;;;3.10;;
17253;SDS011;32542;52.832;13.816;2023-07-29T10:34:55;4.65;;;2.90;;
17253;SDS011;32542;52.832;13.816;2023-07-29T10:37:58;7.15;;;2.80;;
17253;SDS011;32542;52.832;13.816;2023-07-29T10:41:02;4.60;;;2.80;;
17253;SDS011;32542;52.832;13.816;2023-07-29T10:44:06;4.30;;;2.60;;
17253;SDS011;32542;52.832;13.816;2023-07-29T10:47:44;4.18;;;2.50;;
17253;SDS011;32542;52.832;13.816;2023-07-29T10:50:47;4.35;;;2.88;;
17253;SDS011;32542;52.832;13.816;2023-07-29T10:53:52;6.20;;;2.83;;
17253;SDS011;32542;52.832;13.816;2023-07-29T10:56:56;4.72;;;2.35;;
17253;SDS011;32542;52.832;13.816;2023-07-29T11:00:02;5.07;;;2.80;;
17253;SDS011;32542;52.832;13.816;2023-07-29T11:03:06;3.92;;;2.85;;
17253;SDS011;32542;52.832;13.816;2023-07-29T11:06:10;6.68;;;2.60;;
17253;SDS011;32542;52.832;13.816;2023-07-29T11:12:44;3.63;;;2.70;;
17253;SDS011;32542;52.832;13.816;2023-07-29T11:15:50;6.28;;;2.80;;
17253;SDS011;32542;52.832;13.816;2023-07-29T11:18:53;2.95;;;2.65;;
17253;SDS011;32542;52.832;13.816;2023-07-29T11:21:57;3.58;;;2.72;;
17253;SDS011;32542;52.832;13.816;2023-07-29T11:25:00;4.18;;;2.55;;
17253;SDS011;32542;52.832;13.816;2023-07-29T11:28:03;3.55;;;2.65;;
17253;SDS011;32542;52.832;13.816;2023-07-29T11:31:09;4.07;;;2.75;;
17253;SDS011;32542;52.832;13.816;2023-07-29T11:34:12;2.75;;;2.50;;
17253;SDS011;32542;52.832;13.816;2023-07-29T11:37:18;3.38;;;2.53;;
17253;SDS011;32542;52.832;13.816;2023-07-29T11:40:23;4.78;;;2.90;;
17253;SDS011;32542;52.832;13.816;2023-07-29T11:43:26;3.83;;;2.70;;
17253;SDS011;32542;52.832;13.816;2023-07-29T11:46:30;3.45;;;2.55;;
17253;SDS011;32542;52.832;13.816;2023-07-29T11:49:33;4.32;;;2.83;;
17253;SDS011;32542;52.832;13.816;2023-07-29T11:52:37;3.78;;;2.65;;
17253;SDS011;32542;52.832;13.816;2023-07-29T11:55:40;13.10;;;3.53;;
17253;SDS011;32542;52.832;13.816;2023-07-29T11:58:43;3.08;;;2.45;;
17253;SDS011;32542;52.832;13.816;2023-07-29T12:01:48;6.18;;;2.72;;
17253;SDS011;32542;52.832;13.816;2023-07-29T12:04:51;3.38;;;2.72;;
17253;SDS011;32542;52.832;13.816;2023-07-29T12:07:54;5.63;;;2.83;;
17253;SDS011;32542;52.832;13.816;2023-07-29T12:10:57;6.38;;;2.70;;
17253;SDS011;32542;52.832;13.816;2023-07-29T12:14:00;7.15;;;2.80;;
17253;SDS011;32542;52.832;13.816;2023-07-29T12:17:06;4.75;;;3.00;;
17253;SDS011;32542;52.832;13.816;2023-07-29T12:20:09;4.70;;;3.13;;
17253;SDS011;32542;52.832;13.816;2023-07-29T12:23:13;4.45;;;2.80;;
17253;SDS011;32542;52.832;13.816;2023-07-29T12:26:16;4.43;;;2.67;;
17253;SDS011;32542;52.832;13.816;2023-07-29T12:29:19;6.32;;;2.83;;
17253;SDS011;32542;52.832;13.816;2023-07-29T12:32:24;5.72;;;3.10;;
17253;SDS011;32542;52.832;13.816;2023-07-29T12:35:35;3.47;;;2.50;;
17253;SDS011;32542;52.832;13.816;2023-07-29T12:38:38;3.60;;;2.55;;
17253;SDS011;32542;52.832;13.816;2023-07-29T12:48:52;3.80;;;2.42;;
17253;SDS011;32542;52.832;13.816;2023-07-29T12:51:55;4.35;;;2.20;;
17253;SDS011;32542;52.832;13.816;2023-07-29T12:54:58;4.38;;;2.15;;
17253;SDS011;32542;52.832;13.816;2023-07-29T12:58:01;5.40;;;2.30;;
17253;SDS011;32542;52.832;13.816;2023-07-29T13:01:04;3.63;;;2.10;;
17253;SDS011;32542;52.832;13.816;2023-07-29T13:04:09;2.95;;;2.25;;
17253;SDS011;32542;52.832;13.816;2023-07-29T13:07:12;4.72;;;2.08;;
17253;SDS011;32542;52.832;13.816;2023-07-29T13:10:15;5.40;;;2.20;;
17253;SDS011;32542;52.832;13.816;2023-07-29T13:13:17;5.47;;;2.42;;
17253;SDS011;32542;52.832;13.816;2023-07-29T13:16:22;5.18;;;2.00;;
17253;SDS011;32542;52.832;13.816;2023-07-29T13:19:26;3.53;;;1.90;;
17253;SDS011;32542;52.832;13.816;2023-07-29T13:22:29;6.43;;;2.35;;
17253;SDS011;32542;52.832;13.816;2023-07-29T13:25:32;5.75;;;2.15;;
17253;SDS011;32542;52.832;13.816;2023-07-29T13:28:35;7.18;;;2.20;;
17253;SDS011;32542;52.832;13.816;2023-07-29T13:31:38;3.13;;;1.70;;
17253;SDS011;32542;52.832;13.816;2023-07-29T13:34:42;5.25;;;2.20;;
17253;SDS011;32542;52.832;13.816;2023-07-29T13:37:45;8.07;;;2.20;;
17253;SDS011;32542;52.832;13.816;2023-07-29T13:40:48;5.32;;;2.50;;
17253;SDS011;32542;52.832;13.816;2023-07-29T13:43:52;6.97;;;1.88;;
17253;SDS011;32542;52.832;13.816;2023-07-29T13:46:55;6.13;;;2.00;;
17253;SDS011;32542;52.832;13.816;2023-07-29T13:49:59;4.22;;;1.80;;
17253;SDS011;32542;52.832;13.816;2023-07-29T13:53:02;4.75;;;1.83;;
17253;SDS011;32542;52.832;13.816;2023-07-29T13:56:05;4.97;;;1.98;;
17253;SDS011;32542;52.832;13.816;2023-07-29T13:59:08;4.25;;;1.70;;
17253;SDS011;32542;52.832;13.816;2023-07-29T14:02:11;4.25;;;1.65;;
17253;SDS011;32542;52.832;13.816;2023-07-29T14:05:15;3.15;;;1.95;;
17253;SDS011;32542;52.832;13.816;2023-07-29T14:08:18;4.38;;;1.98;;
17253;SDS011;32542;52.832;13.816;2023-07-29T14:11:21;4.28;;;1.80;;
17253;SDS011;32542;52.832;13.816;2023-07-29T14:14:24;3.03;;;1.60;;
17253;SDS011;32542;52.832;13.816;2023-07-29T14:17:27;4.60;;;2.00;;
17253;SDS011;32542;52.832;13.816;2023-07-29T14:20:32;4.68;;;1.90;;
17253;SDS011;32542;52.832;13.816;2023-07-29T14:23:35;5.22;;;2.35;;
17253;SDS011;32542;52.832;13.816;2023-07-29T14:26:38;2.95;;;2.00;;
17253;SDS011;32542;52.832;13.816;2023-07-29T14:29:40;5.97;;;2.63;;
17253;SDS011;32542;52.832;13.816;2023-07-29T14:32:43;4.32;;;2.17;;
17253;SDS011;32542;52.832;13.816;2023-07-29T14:35:48;2.90;;;2.05;;
17253;SDS011;32542;52.832;13.816;2023-07-29T14:38:51;5.05;;;2.00;;
17253;SDS011;32542;52.832;13.816;2023-07-29T14:41:54;2.95;;;1.90;;
17253;SDS011;32542;52.832;13.816;2023-07-29T14:44:56;3.05;;;1.80;;
17253;SDS011;32542;52.832;13.816;2023-07-29T14:47:59;5.80;;;2.08;;
17253;SDS011;32542;52.832;13.816;2023-07-29T14:51:04;3.95;;;1.90;;
17253;SDS011;32542;52.832;13.816;2023-07-29T14:54:06;2.42;;;1.73;;
17253;SDS011;32542;52.832;13.816;2023-07-29T14:57:09;3.47;;;1.95;;
17253;SDS011;32542;52.832;13.816;2023-07-29T15:00:13;4.55;;;1.83;;
17253;SDS011;32542;52.832;13.816;2023-07-29T15:03:16;3.45;;;1.80;;
17253;SDS011;32542;52.832;13.816;2023-07-29T15:06:20;3.58;;;1.90;;
17253;SDS011;32542;52.832;13.816;2023-07-29T15:09:23;2.70;;;1.52;;
17253;SDS011;32542;52.832;13.816;2023-07-29T15:12:26;2.00;;;1.48;;
17253;SDS011;32542;52.832;13.816;2023-07-29T15:15:29;2.15;;;1.60;;
17253;SDS011;32542;52.832;13.816;2023-07-29T15:18:32;2.75;;;1.70;;
17253;SDS011;32542;52.832;13.816;2023-07-29T15:21:37;2.70;;;1.98;;
17253;SDS011;32542;52.832;13.816;2023-07-29T15:24:40;2.38;;;1.83;;
17253;SDS011;32542;52.832;13.816;2023-07-29T15:27:44;2.55;;;1.70;;
17253;SDS011;32542;52.832;13.816;2023-07-29T15:30:47;2.20;;;1.65;;
17253;SDS011;32542;52.832;13.816;2023-07-29T15:33:51;2.05;;;1.75;;
17253;SDS011;32542;52.832;13.816;2023-07-29T15:36:55;2.17;;;1.90;;
17253;SDS011;32542;52.832;13.816;2023-07-29T15:39:58;3.30;;;1.80;;
17253;SDS011;32542;52.832;13.816;2023-07-29T15:43:01;3.22;;;1.80;;
17253;SDS011;32542;52.832;13.816;2023-07-29T15:46:03;4.55;;;1.90;;
17253;SDS011;32542;52.832;13.816;2023-07-29T15:49:07;4.70;;;1.58;;
17253;SDS011;32542;52.832;13.816;2023-07-29T15:52:12;1.92;;;1.38;;
17253;SDS011;32542;52.832;13.816;2023-07-29T15:55:16;1.90;;;1.70;;
17253;SDS011;32542;52.832;13.816;2023-07-29T15:58:19;1.48;;;1.38;;
17253;SDS011;32542;52.832;13.816;2023-07-29T16:01:22;3.60;;;1.70;;
17253;SDS011;32542;52.832;13.816;2023-07-29T16:04:25;1.98;;;1.48;;
17253;SDS011;32542;52.832;13.816;2023-07-29T16:07:29;1.58;;;1.48;;
17253;SDS011;32542;52.832;13.816;2023-07-29T16:10:32;2.03;;;1.50;;
17253;SDS011;32542;52.832;13.816;2023-07-29T16:13:35;3.28;;;1.67;;
17253;SDS011;32542;52.832;13.816;2023-07-29T16:16:38;1.90;;;1.30;;
17253;SDS011;32542;52.832;13.816;2023-07-29T16:19:51;1.35;;;1.25;;
17253;SDS011;32542;52.832;13.816;2023-07-29T16:22:57;4.03;;;1.63;;
17253;SDS011;32542;52.832;13.816;2023-07-29T16:26:00;1.60;;;1.40;;
17253;SDS011;32542;52.832;13.816;2023-07-29T16:29:03;4.10;;;1.75;;
17253;SDS011;32542;52.832;13.816;2023-07-29T16:32:06;1.65;;;1.55;;
17253;SDS011;32542;52.832;13.816;2023-07-29T16:35:10;1.80;;;1.65;;
17253;SDS011;32542;52.832;13.816;2023-07-29T16:38:14;3.00;;;1.40;;
17253;SDS011;32542;52.832;13.816;2023-07-29T16:41:17;1.83;;;1.67;;
17253;SDS011;32542;52.832;13.816;2023-07-29T16:44:27;2.80;;;1.23;;
17253;SDS011;32542;52.832;13.816;2023-07-29T16:47:30;1.98;;;1.50;;
17253;SDS011;32542;52.832;13.816;2023-07-29T16:50:33;1.92;;;1.38;;
17253;SDS011;32542;52.832;13.816;2023-07-29T16:53:38;3.08;;;1.38;;
17253;SDS011;32542;52.832;13.816;2023-07-29T16:56:41;1.88;;;1.60;;
17253;SDS011;32542;52.832;13.816;2023-07-29T16:59:43;2.67;;;1.50;;
17253;SDS011;32542;52.832;13.816;2023-07-29T17:02:46;3.53;;;1.50;;
17253;SDS011;32542;52.832;13.816;2023-07-29T17:05:50;2.08;;;1.52;;
17253;SDS011;32542;52.832;13.816;2023-07-29T17:08:58;1.85;;;1.40;;
17253;SDS011;32542;52.832;13.816;2023-07-29T17:12:00;2.80;;;1.40;;
17253;SDS011;32542;52.832;13.816;2023-07-29T17:15:04;4.93;;;1.60;;
17253;SDS011;32542;52.832;13.816;2023-07-29T17:18:09;2.70;;;1.40;;
17253;SDS011;32542;52.832;13.816;2023-07-29T17:21:12;2.70;;;1.50;;
17253;SDS011;32542;52.832;13.816;2023-07-29T17:24:17;1.73;;;1.40;;
17253;SDS011;32542;52.832;13.816;2023-07-29T17:27:20;1.73;;;1.60;;
17253;SDS011;32542;52.832;13.816;2023-07-29T17:30:23;5.30;;;1.40;;
17253;SDS011;32542;52.832;13.816;2023-07-29T17:33:26;1.90;;;1.40;;
17253;SDS011;32542;52.832;13.816;2023-07-29T17:36:29;2.63;;;1.50;;
17253;SDS011;32542;52.832;13.816;2023-07-29T17:39:33;1.92;;;1.50;;
17253;SDS011;32542;52.832;13.816;2023-07-29T17:42:36;2.63;;;1.40;;
17253;SDS011;32542;52.832;13.816;2023-07-29T17:45:40;1.60;;;1.50;;
17253;SDS011;32542;52.832;13.816;2023-07-29T17:48:43;4.20;;;1.50;;
17253;SDS011;32542;52.832;13.816;2023-07-29T17:51:46;2.65;;;1.40;;
17253;SDS011;32542;52.832;13.816;2023-07-29T17:54:51;1.50;;;1.40;;
17253;SDS011;32542;52.832;13.816;2023-07-29T17:57:53;1.77;;;1.50;;
17253;SDS011;32542;52.832;13.816;2023-07-29T18:00:56;3.08;;;1.50;;
17253;SDS011;32542;52.832;13.816;2023-07-29T18:03:59;1.88;;;1.58;;
17253;SDS011;32542;52.832;13.816;2023-07-29T18:07:03;2.15;;;1.20;;
17253;SDS011;32542;52.832;13.816;2023-07-29T18:10:08;2.03;;;1.60;;
17253;SDS011;32542;52.832;13.816;2023-07-29T18:13:11;2.90;;;1.60;;
17253;SDS011;32542;52.832;13.816;2023-07-29T18:16:14;1.27;;;1.17;;
17253;SDS011;32542;52.832;13.816;2023-07-29T18:19:21;1.70;;;1.48;;
17253;SDS011;32542;52.832;13.816;2023-07-29T18:22:26;2.30;;;1.40;;
17253;SDS011;32542;52.832;13.816;2023-07-29T18:25:30;2.05;;;1.48;;
17253;SDS011;32542;52.832;13.816;2023-07-29T18:28:34;2.28;;;1.38;;
17253;SDS011;32542;52.832;13.816;2023-07-29T18:31:37;1.45;;;1.20;;